Time;durP1;ratioP1;P1;durP2;ratioP2;P2;SDS_P1;SDS_P2;PMS_P1;PMS_P2;Temp;Humidity;BMP_temperature;BMP_pressure;BME280_temperature;BME280_humidity;BME280_pressure;Samples;Min_cycle;Max_cycle;Signal;HPM_P1;HPM_P2
2021/12/27 00:00:46;;;;;;;16.20;8.80;;;4.30;99.90;;;;;;5037218;28;20477;-82
2021/12/27 00:03:12;;;;;;;16.90;9.50;;;4.30;99.90;;;;;;5036828;28;20200;-82
2021/12/27 00:05:37;;;;;;;14.53;9.47;;;4.30;99.90;;;;;;5019225;28;20446;-82
2021/12/27 00:08:03;;;;;;;12.90;7.90;;;4.30;99.90;;;;;;5018813;28;20196;-82
2021/12/27 00:10:29;;;;;;;14.50;9.40;;;4.30;99.90;;;;;;5018829;28;20836;-82
2021/12/27 00:12:56;;;;;;;13.77;8.63;;;4.30;99.90;;;;;;5036605;28;20184;-81
2021/12/27 00:15:22;;;;;;;13.10;8.07;;;4.40;99.90;;;;;;5037286;28;20207;-83
2021/12/27 00:17:48;;;;;;;11.30;7.83;;;4.40;99.90;;;;;;5025390;28;20427;-83
2021/12/27 00:20:16;;;;;;;12.73;9.27;;;4.40;99.90;;;;;;5025039;28;20422;-83
2021/12/27 00:22:43;;;;;;;16.37;9.90;;;4.40;99.90;;;;;;5025398;28;20542;-83
2021/12/27 00:25:09;;;;;;;15.23;9.00;;;4.40;99.90;;;;;;5024665;28;20439;-83
2021/12/27 00:27:35;;;;;;;17.80;9.70;;;4.40;99.90;;;;;;5025457;28;20960;-82
2021/12/27 00:30:00;;;;;;;18.20;9.07;;;4.40;99.90;;;;;;5042183;28;20411;-84
2021/12/27 00:32:26;;;;;;;14.73;8.97;;;4.40;99.90;;;;;;5024430;28;20275;-84
2021/12/27 00:34:52;;;;;;;18.40;9.83;;;4.40;99.90;;;;;;5024606;28;20204;-84
2021/12/27 00:37:18;;;;;;;15.80;9.23;;;4.40;99.90;;;;;;5024068;28;20196;-83
2021/12/27 00:39:43;;;;;;;18.87;9.00;;;4.40;99.90;;;;;;5023801;28;20431;-83
2021/12/27 00:42:09;;;;;;;11.63;8.00;;;4.50;99.90;;;;;;5023403;28;20216;-82
2021/12/27 00:44:35;;;;;;;16.93;9.17;;;4.50;99.90;;;;;;5041711;28;20284;-83
2021/12/27 00:47:01;;;;;;;12.23;8.20;;;4.50;99.90;;;;;;5041305;28;20183;-84
2021/12/27 00:49:27;;;;;;;12.73;7.83;;;4.50;99.90;;;;;;5023639;28;20466;-83
2021/12/27 00:51:53;;;;;;;14.10;9.33;;;4.50;99.90;;;;;;5041368;28;20183;-84
2021/12/27 00:54:19;;;;;;;15.77;8.97;;;4.60;99.90;;;;;;5041102;28;20967;-82
2021/12/27 00:56:44;;;;;;;13.03;9.27;;;4.60;99.90;;;;;;5022373;28;20239;-83
2021/12/27 00:59:10;;;;;;;17.73;8.80;;;4.60;99.90;;;;;;5040617;28;20826;-83
2021/12/27 01:01:36;;;;;;;22.40;9.10;;;4.60;99.90;;;;;;5022319;28;20235;-83
2021/12/27 01:04:03;;;;;;;14.77;8.13;;;4.50;99.90;;;;;;5021977;28;20447;-82
2021/12/27 01:06:29;;;;;;;17.90;10.00;;;4.60;99.90;;;;;;5022156;28;20184;-84
2021/12/27 01:08:55;;;;;;;13.60;8.23;;;4.60;99.90;;;;;;5040204;28;20415;-84
2021/12/27 01:11:27;;;;;;;13.70;8.43;;;4.60;99.90;;;;;;5040288;28;20927;-83
2021/12/27 01:14:12;;;;;;;17.60;10.37;;;4.60;99.90;;;;;;5021520;28;20201;-82
2021/12/27 01:16:40;;;;;;;16.67;9.50;;;4.60;99.90;;;;;;5037697;28;20415;-84
2021/12/27 01:19:06;;;;;;;17.43;10.07;;;4.60;99.90;;;;;;5038738;28;20431;-84
2021/12/27 01:21:32;;;;;;;14.60;8.83;;;4.50;99.90;;;;;;5020606;28;20990;-84
2021/12/27 01:23:58;;;;;;;14.73;10.80;;;4.50;99.90;;;;;;5020961;28;21014;-83
2021/12/27 01:26:25;;;;;;;13.53;9.47;;;4.60;99.90;;;;;;5037201;28;20424;-84
2021/12/27 01:28:52;;;;;;;11.90;8.17;;;4.60;99.90;;;;;;5021013;28;20289;-83
2021/12/27 01:31:17;;;;;;;17.20;9.63;;;4.70;99.90;;;;;;5020073;28;20420;-83
2021/12/27 01:33:45;;;;;;;13.63;9.50;;;4.60;99.90;;;;;;5019872;28;20835;-81
2021/12/27 01:36:11;;;;;;;13.30;9.83;;;4.60;99.90;;;;;;5019471;28;20271;-81
2021/12/27 01:38:39;;;;;;;14.60;8.50;;;4.60;99.90;;;;;;5037886;28;20501;-81
2021/12/27 01:41:05;;;;;;;12.00;8.17;;;4.60;99.90;;;;;;5037259;28;20180;-82
2021/12/27 01:43:33;;;;;;;13.23;7.70;;;4.70;99.90;;;;;;5037482;28;20917;-82
2021/12/27 01:46:03;;;;;;;12.70;7.77;;;4.70;99.90;;;;;;5019710;28;20882;-82
2021/12/27 01:48:36;;;;;;;13.67;7.97;;;4.70;99.90;;;;;;5037420;28;20497;-83
2021/12/27 01:51:05;;;;;;;14.77;8.77;;;4.70;99.90;;;;;;5020039;28;20820;-82
2021/12/27 01:53:32;;;;;;;14.70;9.47;;;4.70;99.90;;;;;;5019278;28;20505;-82
2021/12/27 01:55:59;;;;;;;13.03;9.33;;;4.70;99.90;;;;;;5019549;28;20456;-81
2021/12/27 01:58:27;;;;;;;15.00;8.23;;;4.80;99.90;;;;;;5036575;28;20431;-82
2021/12/27 02:00:54;;;;;;;14.10;9.20;;;4.80;99.90;;;;;;5019128;28;20927;-82
2021/12/27 02:03:23;;;;;;;14.53;9.10;;;4.80;99.90;;;;;;5036387;28;20462;-83
2021/12/27 02:05:49;;;;;;;10.83;7.60;;;4.90;99.90;;;;;;5035050;28;20432;-84
2021/12/27 02:08:15;;;;;;;15.00;8.40;;;4.90;99.90;;;;;;5018847;28;20421;-83
2021/12/27 02:10:41;;;;;;;13.13;7.67;;;4.90;99.90;;;;;;5036982;28;20174;-83
2021/12/27 02:13:08;;;;;;;12.83;9.00;;;5.00;99.90;;;;;;5037427;28;20188;-83
2021/12/27 02:15:34;;;;;;;16.50;10.40;;;4.90;99.90;;;;;;5020139;28;20444;-82
2021/12/27 02:18:00;;;;;;;11.83;7.80;;;4.90;99.90;;;;;;5035404;28;20435;-83
2021/12/27 02:20:29;;;;;;;13.83;8.67;;;4.90;99.90;;;;;;5018980;28;20941;-84
2021/12/27 02:23:00;;;;;;;13.87;9.60;;;4.90;99.90;;;;;;5037615;28;20959;-82
2021/12/27 02:25:27;;;;;;;14.00;10.13;;;4.90;99.90;;;;;;5037157;28;20436;-84
2021/12/27 02:27:52;;;;;;;11.23;8.00;;;4.90;99.90;;;;;;5018174;28;20415;-82
2021/12/27 02:30:19;;;;;;;13.40;8.07;;;4.90;99.90;;;;;;5017517;28;20435;-82
2021/12/27 02:32:46;;;;;;;11.90;7.43;;;4.90;99.90;;;;;;5018614;28;20439;-82
2021/12/27 02:35:18;;;;;;;12.20;8.00;;;4.90;99.90;;;;;;5017809;28;20445;-84
2021/12/27 02:37:44;;;;;;;11.53;7.60;;;4.90;99.90;;;;;;5036320;28;20416;-83
2021/12/27 02:40:11;;;;;;;11.30;7.73;;;4.90;99.90;;;;;;5018420;28;20515;-83
2021/12/27 02:42:52;;;;;;;11.17;7.70;;;4.90;99.90;;;;;;5018968;28;20829;-84
2021/12/27 02:45:18;;;;;;;12.17;8.57;;;4.90;99.90;;;;;;5036860;28;20437;-84
2021/12/27 02:47:43;;;;;;;14.40;8.97;;;5.00;99.90;;;;;;5036169;28;20409;-83
2021/12/27 02:50:09;;;;;;;11.63;8.40;;;5.00;99.90;;;;;;5035577;28;20173;-81
2021/12/27 02:52:35;;;;;;;11.43;6.80;;;5.00;99.90;;;;;;5036079;28;20192;-82
2021/12/27 02:55:00;;;;;;;10.47;7.27;;;5.00;99.90;;;;;;5035655;28;20591;-83
2021/12/27 02:57:26;;;;;;;12.97;7.93;;;5.00;99.90;;;;;;5017520;28;20203;-84
2021/12/27 02:59:52;;;;;;;13.03;7.10;;;5.00;99.90;;;;;;5036000;28;20178;-81
2021/12/27 03:02:18;;;;;;;11.17;7.83;;;5.00;99.90;;;;;;5017418;28;20210;-84
2021/12/27 03:04:45;;;;;;;13.53;8.00;;;5.00;99.90;;;;;;5018006;28;20809;-81
2021/12/27 03:07:12;;;;;;;12.30;6.73;;;5.00;99.90;;;;;;5035629;28;20209;-83
2021/12/27 03:09:38;;;;;;;11.60;7.60;;;4.90;99.90;;;;;;5035834;28;20415;-82
2021/12/27 03:12:09;;;;;;;14.73;8.23;;;4.90;99.90;;;;;;5017612;28;20188;-84
2021/12/27 03:14:35;;;;;;;13.70;7.20;;;4.80;99.90;;;;;;5036159;28;20509;-82
2021/12/27 03:17:02;;;;;;;11.30;7.70;;;4.80;99.90;;;;;;5035635;28;20908;-84
2021/12/27 03:19:27;;;;;;;11.23;8.10;;;4.70;99.90;;;;;;5017583;28;20189;-83
2021/12/27 03:21:53;;;;;;;13.03;8.20;;;4.70;99.90;;;;;;5035855;28;20528;-82
2021/12/27 03:24:18;;;;;;;14.43;8.60;;;4.70;99.90;;;;;;5017346;28;20196;-83
2021/12/27 03:26:44;;;;;;;11.80;7.77;;;4.70;99.90;;;;;;5035430;28;20182;-82
2021/12/27 03:29:11;;;;;;;10.80;7.70;;;4.70;99.90;;;;;;5017516;28;20212;-84
2021/12/27 03:31:37;;;;;;;11.90;7.90;;;4.60;99.90;;;;;;5017041;28;20215;-80
2021/12/27 03:34:04;;;;;;;12.80;8.40;;;4.60;99.90;;;;;;5035028;28;20444;-83
2021/12/27 03:36:37;;;;;;;12.83;7.20;;;4.60;99.90;;;;;;5016639;28;20435;-81
2021/12/27 03:39:06;;;;;;;11.67;7.40;;;4.60;99.90;;;;;;5017153;28;20424;-83
2021/12/27 03:41:31;;;;;;;13.00;9.33;;;4.60;99.90;;;;;;5016844;28;21066;-83
2021/12/27 03:43:57;;;;;;;13.33;8.47;;;4.70;99.90;;;;;;5020723;28;20446;-82
2021/12/27 03:46:22;;;;;;;12.80;8.37;;;4.70;99.90;;;;;;5039045;28;20620;-81
2021/12/27 03:48:48;;;;;;;11.60;7.73;;;4.70;99.90;;;;;;5020266;28;20256;-82
2021/12/27 03:51:13;;;;;;;13.27;7.90;;;4.80;99.90;;;;;;5038470;28;20561;-84
2021/12/27 03:53:39;;;;;;;11.50;6.83;;;4.80;99.90;;;;;;5020295;28;20188;-83
2021/12/27 03:56:08;;;;;;;12.97;8.13;;;4.80;99.90;;;;;;5020263;28;20638;-82
2021/12/27 03:58:46;;;;;;;15.53;8.10;;;4.90;99.90;;;;;;5020180;28;20182;-81
2021/12/27 04:01:15;;;;;;;14.30;7.70;;;4.90;99.90;;;;;;5020397;28;21000;-81
2021/12/27 04:03:46;;;;;;;10.73;7.50;;;4.90;99.90;;;;;;5020643;28;20976;-81
2021/12/27 04:06:13;;;;;;;12.80;7.87;;;4.90;99.90;;;;;;5020165;28;20428;-83
2021/12/27 04:08:38;;;;;;;13.57;8.30;;;4.90;99.90;;;;;;5038680;28;20421;-83
2021/12/27 04:11:04;;;;;;;13.07;7.93;;;5.00;99.90;;;;;;5038010;28;20998;-84
2021/12/27 04:13:30;;;;;;;13.43;9.13;;;5.00;99.90;;;;;;5019494;28;20555;-81
2021/12/27 04:15:56;;;;;;;14.73;7.77;;;5.00;99.90;;;;;;5037580;28;20187;-82
2021/12/27 04:18:21;;;;;;;13.00;8.03;;;5.00;99.90;;;;;;5020050;28;20218;-81
2021/12/27 04:20:47;;;;;;;14.20;8.90;;;5.00;99.90;;;;;;5019547;28;20923;-82
2021/12/27 04:23:14;;;;;;;11.90;8.00;;;5.00;99.90;;;;;;5019923;28;20713;-81
2021/12/27 04:25:42;;;;;;;13.30;8.40;;;5.10;99.90;;;;;;5037675;28;20914;-82
2021/12/27 04:28:08;;;;;;;15.83;8.60;;;5.10;99.90;;;;;;5037031;28;20421;-82
2021/12/27 04:30:34;;;;;;;13.03;8.20;;;5.10;99.90;;;;;;5019486;28;20415;-81
2021/12/27 04:33:00;;;;;;;13.90;9.40;;;5.20;99.90;;;;;;5037356;28;20448;-81
2021/12/27 04:35:25;;;;;;;10.43;7.00;;;5.20;99.90;;;;;;5019983;28;20459;-81
2021/12/27 04:37:52;;;;;;;12.50;7.60;;;5.10;99.90;;;;;;5037513;28;20210;-83
2021/12/27 04:40:19;;;;;;;11.40;7.83;;;5.10;99.90;;;;;;5019054;28;20292;-83
2021/12/27 04:42:51;;;;;;;15.63;8.57;;;5.10;99.90;;;;;;5019012;28;20470;-83
2021/12/27 04:45:17;;;;;;;11.00;8.43;;;5.10;99.90;;;;;;5019251;28;20443;-81
2021/12/27 04:47:43;;;;;;;13.23;7.53;;;5.20;99.90;;;;;;5019289;28;20432;-84
2021/12/27 04:50:09;;;;;;;13.10;8.90;;;5.20;99.90;;;;;;5019552;28;20924;-83
2021/12/27 04:52:35;;;;;;;14.50;8.20;;;5.20;99.90;;;;;;5018910;28;20436;-82
2021/12/27 04:55:00;;;;;;;12.27;8.30;;;5.20;99.90;;;;;;5018894;28;20833;-82
2021/12/27 04:57:26;;;;;;;16.43;8.40;;;5.20;99.90;;;;;;5036470;28;20184;-81
2021/12/27 04:59:52;;;;;;;11.53;7.10;;;5.20;99.90;;;;;;5036392;28;20192;-80
2021/12/27 05:02:17;;;;;;;16.10;7.03;;;5.20;99.90;;;;;;5036767;28;20285;-83
2021/12/27 05:04:43;;;;;;;14.33;9.97;;;5.20;99.90;;;;;;5018633;28;20213;-81
2021/12/27 05:07:08;;;;;;;10.30;6.43;;;5.20;99.90;;;;;;5018470;28;20276;-81
2021/12/27 05:09:34;;;;;;;9.97;7.33;;;5.20;99.90;;;;;;5017955;28;20186;-81
2021/12/27 05:12:00;;;;;;;12.23;8.10;;;5.20;99.90;;;;;;5018452;28;20224;-83
2021/12/27 05:14:25;;;;;;;13.03;8.43;;;5.20;99.90;;;;;;5036390;28;20211;-82
2021/12/27 05:16:51;;;;;;;11.03;6.80;;;5.30;99.90;;;;;;5036410;28;20193;-82
2021/12/27 05:19:16;;;;;;;12.70;7.73;;;5.30;99.90;;;;;;5036454;28;20206;-83
2021/12/27 05:21:42;;;;;;;10.40;7.93;;;5.20;99.90;;;;;;5018594;28;20218;-83
2021/12/27 05:24:08;;;;;;;15.20;7.37;;;5.20;99.90;;;;;;5018078;28;20198;-82
2021/12/27 05:26:34;;;;;;;11.53;7.73;;;5.30;99.90;;;;;;5018626;28;20705;-82
2021/12/27 05:28:59;;;;;;;11.33;7.23;;;5.20;99.90;;;;;;5036143;28;20178;-83
2021/12/27 05:31:25;;;;;;;12.33;7.63;;;5.20;99.90;;;;;;5018060;28;20217;-82
2021/12/27 05:33:51;;;;;;;13.20;7.10;;;5.30;99.90;;;;;;5017803;28;20233;-84
2021/12/27 05:36:16;;;;;;;10.53;7.37;;;5.30;99.90;;;;;;5036739;28;20181;-82
2021/12/27 05:38:42;;;;;;;10.37;7.03;;;5.30;99.90;;;;;;5017777;28;20278;-82
2021/12/27 05:41:07;;;;;;;14.13;7.50;;;5.30;99.90;;;;;;5017430;28;20295;-81
2021/12/27 05:43:33;;;;;;;13.30;7.10;;;5.30;99.90;;;;;;5017873;28;20242;-83
2021/12/27 05:46:02;;;;;;;11.80;7.83;;;5.40;99.90;;;;;;5036438;28;20642;-83
2021/12/27 05:48:27;;;;;;;9.60;6.90;;;5.30;99.90;;;;;;5017128;28;20835;-83
2021/12/27 05:50:53;;;;;;;13.07;6.97;;;5.40;99.90;;;;;;5017638;28;20436;-83
2021/12/27 05:53:20;;;;;;;11.20;6.47;;;5.40;99.90;;;;;;5017670;28;20194;-81
2021/12/27 05:55:46;;;;;;;10.93;7.10;;;5.50;99.90;;;;;;5035422;28;20218;-83
2021/12/27 05:58:11;;;;;;;14.43;7.03;;;5.50;99.90;;;;;;5035296;28;20888;-82
2021/12/27 06:00:38;;;;;;;10.27;6.70;;;5.50;99.90;;;;;;5035556;28;20477;-81
2021/12/27 06:03:03;;;;;;;10.80;7.17;;;5.50;99.90;;;;;;5017939;28;20214;-81
2021/12/27 06:05:29;;;;;;;10.80;6.90;;;5.50;99.90;;;;;;5034812;28;20442;-82
2021/12/27 06:07:55;;;;;;;13.83;7.80;;;5.50;99.90;;;;;;5017130;28;20654;-83
2021/12/27 06:10:20;;;;;;;10.67;7.00;;;5.60;99.90;;;;;;5017292;28;20186;-79
2021/12/27 06:12:47;;;;;;;12.10;7.30;;;5.60;99.90;;;;;;5034823;28;20205;-83
2021/12/27 06:15:13;;;;;;;11.53;7.60;;;5.60;99.90;;;;;;5032269;28;20218;-82
2021/12/27 06:17:40;;;;;;;12.20;7.00;;;5.60;99.90;;;;;;5016345;28;20422;-81
2021/12/27 06:20:12;;;;;;;11.53;7.30;;;5.60;99.90;;;;;;5034911;28;20934;-82
2021/12/27 06:22:40;;;;;;;10.63;6.90;;;5.60;99.90;;;;;;5035251;28;20450;-82
2021/12/27 06:25:07;;;;;;;9.73;6.23;;;5.50;99.90;;;;;;5017578;28;20449;-79
2021/12/27 06:27:33;;;;;;;13.03;7.03;;;5.50;99.90;;;;;;5033867;28;20443;-81
2021/12/27 06:30:00;;;;;;;11.10;7.33;;;5.60;99.90;;;;;;5036774;28;20414;-82
2021/12/27 06:32:26;;;;;;;11.73;6.70;;;5.60;99.90;;;;;;5015566;28;20427;-82
2021/12/27 06:34:52;;;;;;;10.37;7.20;;;5.60;99.90;;;;;;4999934;28;20453;-82
2021/12/27 06:37:18;;;;;;;10.53;5.93;;;5.60;99.90;;;;;;4999490;28;20189;-82
2021/12/27 06:39:44;;;;;;;10.23;6.63;;;5.60;99.90;;;;;;4999713;28;20434;-82
2021/12/27 06:42:09;;;;;;;12.20;6.60;;;5.70;99.90;;;;;;4999177;28;20469;-83
2021/12/27 06:44:35;;;;;;;9.70;5.87;;;5.70;99.90;;;;;;5001317;28;20203;-83
2021/12/27 06:47:01;;;;;;;9.97;6.37;;;5.70;99.90;;;;;;5019759;28;20194;-84
2021/12/27 06:49:33;;;;;;;10.87;6.20;;;5.70;99.90;;;;;;5020751;28;20267;-83
2021/12/27 06:51:59;;;;;;;12.90;7.00;;;5.70;99.90;;;;;;5003707;28;20192;-84
2021/12/27 06:54:25;;;;;;;12.83;7.37;;;5.70;99.90;;;;;;5021033;28;20476;-84
2021/12/27 06:56:50;;;;;;;10.90;6.63;;;5.70;99.90;;;;;;5019414;28;20195;-83
2021/12/27 06:59:16;;;;;;;11.30;6.10;;;5.70;99.90;;;;;;5020806;28;20186;-84
2021/12/27 07:01:42;;;;;;;10.30;6.60;;;5.70;99.90;;;;;;5020851;28;20261;-83
2021/12/27 07:04:08;;;;;;;11.83;7.00;;;5.60;99.90;;;;;;5003245;28;20516;-83
2021/12/27 07:06:33;;;;;;;8.97;6.40;;;5.60;99.90;;;;;;5018175;28;20189;-81
2021/12/27 07:08:59;;;;;;;10.80;5.83;;;5.60;99.90;;;;;;5000645;28;20180;-82
2021/12/27 07:11:24;;;;;;;10.90;6.33;;;5.60;99.90;;;;;;5018027;28;20415;-80
2021/12/27 07:13:50;;;;;;;10.63;6.20;;;5.60;99.90;;;;;;5003490;28;20237;-82
2021/12/27 07:16:16;;;;;;;8.87;6.27;;;5.60;99.90;;;;;;4999786;28;20191;-81
2021/12/27 07:18:41;;;;;;;8.87;6.07;;;5.60;99.90;;;;;;5001978;28;20191;-82
2021/12/27 07:21:07;;;;;;;11.60;6.20;;;5.60;99.90;;;;;;5019698;28;20187;-82
2021/12/27 07:23:33;;;;;;;10.53;6.40;;;5.50;99.90;;;;;;5004981;28;20709;-83
2021/12/27 07:25:58;;;;;;;9.27;6.47;;;5.50;99.90;;;;;;5023669;28;20233;-83
2021/12/27 07:28:24;;;;;;;13.63;7.53;;;5.50;99.90;;;;;;5023640;28;20182;-83
2021/12/27 07:30:49;;;;;;;10.23;6.90;;;5.50;99.90;;;;;;5023859;28;20186;-84
2021/12/27 07:33:15;;;;;;;11.07;7.17;;;5.50;99.90;;;;;;5024147;28;20235;-84
2021/12/27 07:35:41;;;;;;;9.90;6.07;;;5.50;99.90;;;;;;5023619;28;20242;-83
2021/12/27 07:38:07;;;;;;;10.67;7.03;;;5.50;99.90;;;;;;5004651;28;20182;-84
2021/12/27 07:40:33;;;;;;;11.17;5.30;;;5.50;99.90;;;;;;5023303;28;20178;-84
2021/12/27 07:42:58;;;;;;;10.30;6.97;;;5.50;99.90;;;;;;5022723;28;20454;-84
2021/12/27 07:45:24;;;;;;;9.10;5.60;;;5.40;99.90;;;;;;5023014;28;20299;-83
2021/12/27 07:47:49;;;;;;;9.90;5.93;;;5.30;99.90;;;;;;5004838;28;20187;-83
2021/12/27 07:50:15;;;;;;;11.70;6.10;;;5.30;99.90;;;;;;5022435;28;20211;-82
2021/12/27 07:52:41;;;;;;;8.97;6.10;;;5.30;99.90;;;;;;5004685;28;20191;-83
2021/12/27 07:55:07;;;;;;;13.73;7.40;;;5.30;99.90;;;;;;5022506;28;20634;-83
2021/12/27 07:57:33;;;;;;;9.20;6.13;;;5.20;99.90;;;;;;5022018;28;20209;-83
2021/12/27 07:59:59;;;;;;;8.40;6.47;;;5.20;99.90;;;;;;5004665;28;20423;-83
2021/12/27 08:02:24;;;;;;;14.10;8.30;;;5.20;99.90;;;;;;5004302;28;20496;-83
2021/12/27 08:04:50;;;;;;;8.90;7.20;;;5.20;99.90;;;;;;5004351;28;20320;-82
2021/12/27 08:07:15;;;;;;;12.17;7.27;;;5.20;99.90;;;;;;5004183;28;20182;-82
2021/12/27 08:09:41;;;;;;;12.53;6.70;;;5.20;99.90;;;;;;5004951;28;20214;-84
2021/12/27 08:12:09;;;;;;;12.87;7.77;;;5.20;99.90;;;;;;5004657;28;20254;-83
2021/12/27 08:14:35;;;;;;;12.77;6.90;;;5.30;99.90;;;;;;5021716;28;20200;-84
2021/12/27 08:17:01;;;;;;;11.20;6.57;;;5.40;99.90;;;;;;5003949;28;20961;-83
2021/12/27 08:19:26;;;;;;;11.47;7.10;;;5.40;99.90;;;;;;5003952;28;20423;-83
2021/12/27 08:21:52;;;;;;;12.73;7.50;;;5.50;99.90;;;;;;5003956;28;20209;-83
2021/12/27 08:24:17;;;;;;;10.87;7.13;;;5.60;99.90;;;;;;5020664;28;20215;-83
2021/12/27 08:26:43;;;;;;;12.20;7.10;;;5.70;99.90;;;;;;5022457;28;20644;-84
2021/12/27 08:29:10;;;;;;;14.77;7.30;;;5.80;99.90;;;;;;5021050;28;20203;-82
2021/12/27 08:31:36;;;;;;;12.77;7.77;;;5.80;99.90;;;;;;5017645;28;20191;-83
2021/12/27 08:34:02;;;;;;;10.33;6.43;;;5.90;99.90;;;;;;4999908;28;20446;-83
2021/12/27 08:36:27;;;;;;;11.57;6.80;;;5.80;99.90;;;;;;5000355;28;20803;-82
2021/12/27 08:38:53;;;;;;;9.93;6.70;;;5.90;99.90;;;;;;5017925;28;20176;-83
2021/12/27 08:41:19;;;;;;;11.70;6.80;;;5.90;99.90;;;;;;5022776;28;20182;-83
2021/12/27 08:43:46;;;;;;;11.20;6.80;;;6.00;99.90;;;;;;5037226;28;20703;-83
2021/12/27 08:46:12;;;;;;;10.97;5.97;;;6.00;99.90;;;;;;5037634;28;20429;-83
2021/12/27 08:48:38;;;;;;;9.83;7.27;;;6.10;99.90;;;;;;5019192;28;20427;-83
2021/12/27 08:51:04;;;;;;;9.73;5.90;;;6.10;99.90;;;;;;5037645;28;20241;-84
2021/12/27 08:53:30;;;;;;;10.27;7.80;;;6.20;99.90;;;;;;5037620;28;20445;-82
2021/12/27 08:55:56;;;;;;;9.20;5.83;;;6.20;99.90;;;;;;5019833;28;20652;-84
2021/12/27 08:58:22;;;;;;;10.23;6.43;;;6.20;99.90;;;;;;5018704;28;20480;-83
2021/12/27 09:00:47;;;;;;;13.30;6.90;;;6.20;99.90;;;;;;5033616;28;20233;-82
2021/12/27 09:03:13;;;;;;;13.47;7.30;;;6.20;99.90;;;;;;5027993;28;20282;-81
2021/12/27 09:05:39;;;;;;;10.53;6.40;;;6.20;99.90;;;;;;5017054;28;20231;-83
2021/12/27 09:08:05;;;;;;;11.90;7.50;;;6.30;99.90;;;;;;5035124;28;20249;-82
2021/12/27 09:10:31;;;;;;;9.33;6.40;;;6.30;99.90;;;;;;5018387;28;20427;-84
2021/12/27 09:12:57;;;;;;;12.17;7.83;;;6.30;99.90;;;;;;5018244;28;20184;-84
2021/12/27 09:15:22;;;;;;;11.27;7.40;;;6.30;99.90;;;;;;5018242;28;20481;-82
2021/12/27 09:17:48;;;;;;;11.13;6.67;;;6.30;99.90;;;;;;5035639;28;20180;-83
2021/12/27 09:20:14;;;;;;;11.10;6.50;;;6.30;99.90;;;;;;5017349;28;20184;-83
2021/12/27 09:22:40;;;;;;;9.57;6.60;;;6.40;99.90;;;;;;5020021;28;20225;-80
2021/12/27 09:25:06;;;;;;;8.73;6.17;;;6.30;99.90;;;;;;5020012;28;20215;-82
2021/12/27 09:27:32;;;;;;;8.63;5.90;;;6.30;99.90;;;;;;5022791;28;20933;-82
2021/12/27 09:29:58;;;;;;;9.47;6.50;;;6.30;99.90;;;;;;5023046;28;20579;-82
2021/12/27 09:32:23;;;;;;;9.60;6.00;;;6.40;99.90;;;;;;5032909;28;20195;-81
2021/12/27 09:34:50;;;;;;;11.93;7.70;;;6.40;99.90;;;;;;5019973;28;20207;-83
2021/12/27 09:37:16;;;;;;;9.87;6.23;;;6.30;99.90;;;;;;5035525;28;20182;-83
2021/12/27 09:39:41;;;;;;;12.43;7.47;;;6.40;99.90;;;;;;5016741;28;20441;-82
2021/12/27 09:42:07;;;;;;;12.13;6.57;;;6.50;99.90;;;;;;5016779;28;20207;-82
2021/12/27 09:44:33;;;;;;;12.77;6.77;;;6.50;99.90;;;;;;5032338;28;20208;-82
2021/12/27 09:46:59;;;;;;;13.20;6.10;;;6.50;99.90;;;;;;5014031;28;20195;-82
2021/12/27 09:49:29;;;;;;;13.80;7.77;;;6.50;99.90;;;;;;5014718;28;20506;-82
2021/12/27 09:51:57;;;;;;;12.07;7.27;;;6.60;99.90;;;;;;5032177;28;20431;-82
2021/12/27 09:54:28;;;;;;;11.30;7.30;;;6.70;99.90;;;;;;5032230;28;20516;-81
2021/12/27 09:56:53;;;;;;;12.10;6.10;;;6.70;99.90;;;;;;5031251;28;20411;-81
2021/12/27 09:59:20;;;;;;;12.87;8.07;;;6.70;99.90;;;;;;5014509;28;20427;-82
2021/12/27 10:01:46;;;;;;;9.40;6.90;;;6.70;99.90;;;;;;5032063;28;20243;-81
2021/12/27 10:04:12;;;;;;;11.50;7.10;;;6.70;99.90;;;;;;5014445;28;20443;-82
2021/12/27 10:06:37;;;;;;;11.03;6.70;;;6.70;99.90;;;;;;5013455;28;20791;-81
2021/12/27 10:09:05;;;;;;;11.53;7.37;;;6.70;99.90;;;;;;5014133;28;20934;-81
2021/12/27 10:11:34;;;;;;;12.53;7.27;;;6.80;99.90;;;;;;5032159;28;20592;-82
2021/12/27 10:14:04;;;;;;;11.37;7.70;;;6.80;99.90;;;;;;5014773;28;20863;-81
2021/12/27 10:16:38;;;;;;;11.60;7.00;;;6.90;99.90;;;;;;5013740;28;20459;-81
2021/12/27 10:19:06;;;;;;;14.87;7.77;;;7.00;99.90;;;;;;5014949;28;20416;-80
2021/12/27 10:21:33;;;;;;;11.77;7.43;;;7.00;99.90;;;;;;5014131;28;20945;-82
2021/12/27 10:24:03;;;;;;;11.27;7.03;;;7.10;99.90;;;;;;5032514;28;20858;-81
2021/12/27 10:26:30;;;;;;;12.07;7.07;;;7.00;99.90;;;;;;5007285;28;20495;-83
2021/12/27 10:29:10;;;;;;;10.00;6.50;;;7.00;99.90;;;;;;5028849;28;20451;-82
2021/12/27 10:31:58;;;;;;;10.97;6.93;;;7.00;99.90;;;;;;5014578;28;20460;-81
2021/12/27 10:34:29;;;;;;;10.50;6.50;;;7.00;99.90;;;;;;5031486;28;20443;-80
2021/12/27 10:37:13;;;;;;;11.13;7.10;;;7.10;99.90;;;;;;5014092;28;20427;-81
2021/12/27 10:39:42;;;;;;;11.53;6.00;;;7.10;99.90;;;;;;5012410;28;20447;-81
2021/12/27 10:42:10;;;;;;;12.20;8.33;;;7.10;99.90;;;;;;5014504;28;20458;-82
2021/12/27 10:44:37;;;;;;;11.20;7.50;;;7.10;99.90;;;;;;5032743;28;20439;-81
2021/12/27 10:47:04;;;;;;;9.73;6.00;;;7.10;99.90;;;;;;5031920;28;20403;-82
2021/12/27 10:49:47;;;;;;;10.93;6.63;;;7.10;99.90;;;;;;5015409;28;20411;-82
2021/12/27 10:52:13;;;;;;;10.67;6.37;;;7.20;99.90;;;;;;5017912;28;20454;-82
2021/12/27 10:54:38;;;;;;;18.33;7.93;;;7.40;99.90;;;;;;5018944;28;20459;-82
2021/12/27 10:57:05;;;;;;;11.50;6.50;;;7.50;99.90;;;;;;5018430;28;20470;-84
2021/12/27 10:59:31;;;;;;;12.27;6.83;;;7.50;99.90;;;;;;5034232;28;20176;-83
2021/12/27 11:02:06;;;;;;;11.97;6.67;;;7.60;99.90;;;;;;5036712;28;20513;-82
2021/12/27 11:04:32;;;;;;;10.40;7.80;;;7.70;99.90;;;;;;5036728;28;20766;-82
2021/12/27 11:06:58;;;;;;;9.33;6.77;;;7.70;99.90;;;;;;5036553;28;20411;-82
2021/12/27 11:09:25;;;;;;;9.60;6.77;;;7.70;99.90;;;;;;5019135;28;20184;-83
2021/12/27 11:11:51;;;;;;;11.00;6.90;;;7.70;99.90;;;;;;5035968;28;20873;-82
2021/12/27 11:14:17;;;;;;;12.50;6.50;;;7.80;99.90;;;;;;5019391;28;20442;-81
2021/12/27 11:16:43;;;;;;;11.20;6.27;;;7.80;99.90;;;;;;5017837;28;20419;-83
2021/12/27 11:19:08;;;;;;;12.47;7.47;;;8.00;99.90;;;;;;5037256;28;20173;-82
2021/12/27 11:21:37;;;;;;;10.00;6.70;;;8.10;99.90;;;;;;5018473;28;20219;-81
2021/12/27 11:24:04;;;;;;;7.67;5.40;;;8.20;99.90;;;;;;5044335;28;20231;-82
2021/12/27 11:26:32;;;;;;;9.83;6.33;;;8.50;99.90;;;;;;5021548;28;20446;-82
2021/12/27 11:29:14;;;;;;;10.23;6.90;;;8.70;99.90;;;;;;5041184;28;20415;-84
2021/12/27 11:31:41;;;;;;;8.40;6.20;;;8.80;99.90;;;;;;5021970;28;20427;-83
2021/12/27 11:34:12;;;;;;;8.67;5.93;;;8.80;99.90;;;;;;5040616;28;20431;-83
2021/12/27 11:36:41;;;;;;;10.53;5.70;;;8.80;99.90;;;;;;5021779;28;20427;-82
2021/12/27 11:39:26;;;;;;;9.43;5.90;;;8.70;99.90;;;;;;5039897;28;20799;-83
2021/12/27 11:41:59;;;;;;;9.83;6.53;;;8.70;99.90;;;;;;5038672;28;20459;-83
2021/12/27 11:44:37;;;;;;;11.53;6.53;;;8.80;99.90;;;;;;5039925;28;20871;-83
2021/12/27 11:47:04;;;;;;;9.53;5.77;;;8.80;99.90;;;;;;5038813;28;20396;-84
2021/12/27 11:49:59;;;;;;;8.03;5.40;;;8.80;99.90;;;;;;5022195;28;20914;-82
2021/12/27 11:52:31;;;;;;;8.87;5.70;;;9.00;99.90;;;;;;5035053;28;20456;-83
2021/12/27 11:55:10;;;;;;;8.60;6.20;;;9.10;99.90;;;;;;5019755;28;20836;-81
2021/12/27 11:57:45;;;;;;;9.37;5.30;;;9.40;99.90;;;;;;5017322;28;20425;-83
2021/12/27 12:00:17;;;;;;;7.37;5.33;;;9.80;99.90;;;;;;5017112;28;20445;-82
2021/12/27 12:02:47;;;;;;;7.50;5.33;;;9.80;99.90;;;;;;5034793;28;20458;-82
2021/12/27 12:05:39;;;;;;;7.90;4.70;;;9.90;99.90;;;;;;5034977;28;20439;-82
2021/12/27 12:08:06;;;;;;;7.53;4.83;;;9.80;99.90;;;;;;5033698;28;20876;-81
2021/12/27 12:10:32;;;;;;;9.13;5.43;;;9.70;99.90;;;;;;5016639;28;20494;-81
2021/12/27 12:13:20;;;;;;;7.93;4.90;;;9.70;99.90;;;;;;5033791;28;20461;-82
2021/12/27 12:16:07;;;;;;;6.97;5.03;;;9.60;99.90;;;;;;5016014;28;20967;-81
2021/12/27 12:18:36;;;;;;;7.80;4.70;;;9.50;99.90;;;;;;5015693;28;20466;-80
2021/12/27 12:21:03;;;;;;;6.03;4.67;;;9.50;99.90;;;;;;5033773;28;20477;-81
2021/12/27 12:23:28;;;;;;;6.37;5.00;;;9.40;99.90;;;;;;5015780;28;20909;-82
2021/12/27 12:25:59;;;;;;;7.13;4.83;;;9.30;99.90;;;;;;5032402;28;20514;-82
2021/12/27 12:28:26;;;;;;;6.67;4.67;;;9.20;99.90;;;;;;5015393;28;20304;-82
2021/12/27 12:30:52;;;;;;;7.00;4.93;;;9.00;99.90;;;;;;5034805;28;20415;-82
2021/12/27 12:33:26;;;;;;;6.40;4.70;;;9.00;99.90;;;;;;5017524;28;20514;-84
2021/12/27 12:35:57;;;;;;;6.87;5.27;;;8.80;99.90;;;;;;5016729;28;20427;-81
2021/12/27 12:38:39;;;;;;;8.10;4.87;;;8.70;99.90;;;;;;5016948;28;20445;-83
2021/12/27 12:41:15;;;;;;;10.27;4.50;;;8.80;99.90;;;;;;5016727;28;20513;-82
2021/12/27 12:43:50;;;;;;;6.17;4.70;;;8.80;99.90;;;;;;5017198;28;20458;-83
2021/12/27 12:46:36;;;;;;;8.60;5.70;;;8.80;99.90;;;;;;5035131;28;20427;-81
2021/12/27 12:49:10;;;;;;;8.40;5.20;;;8.80;99.90;;;;;;5002544;28;20801;-81